createdAt,value
2022-12-29T00:00:32.777Z,99224.45
2022-12-29T00:03:21.272Z,99220.93
2022-12-29T00:05:56.903Z,99220.31
2022-12-29T00:08:41.057Z,99210.27
2022-12-29T00:11:11.664Z,99210.91
2022-12-29T00:13:59.541Z,99212.76
2022-12-29T00:16:29.803Z,99218.13
2022-12-29T00:18:58.292Z,99214.33
2022-12-29T00:21:46.234Z,99218.41
2022-12-29T00:24:26.836Z,99220.10
2022-12-29T00:27:22.900Z,99224.73
2022-12-29T00:30:10.408Z,99235.38
2022-12-29T00:32:57.534Z,99237.59
2022-12-29T00:35:41.039Z,99235.10
2022-12-29T00:38:30.425Z,99236.38
2022-12-29T00:41:17.494Z,99232.44
2022-12-29T00:44:05.218Z,99231.38
2022-12-29T00:46:35.696Z,99226.70
2022-12-29T00:49:23.874Z,99225.71
2022-12-29T00:51:52.816Z,99214.10
2022-12-29T00:54:21.504Z,99216.08
2022-12-29T00:56:52.144Z,99203.60
2022-12-29T00:59:22.026Z,99208.96
2022-12-29T01:01:51.561Z,99205.52
2022-12-29T01:04:21.630Z,99204.88
2022-12-29T01:06:51.730Z,99200.64
2022-12-29T01:09:40.743Z,99202.77
2022-12-29T01:12:11.543Z,99206.55
2022-12-29T01:14:40.441Z,99206.67
2022-12-29T01:17:08.796Z,99214.55
2022-12-29T01:19:37.219Z,99216.48
2022-12-29T01:22:05.555Z,99217.52
2022-12-29T01:24:33.861Z,99213.19
2022-12-29T01:27:02.899Z,99209.98
2022-12-29T01:29:31.738Z,99208.54
2022-12-29T01:32:00.086Z,99215.70
2022-12-29T01:34:29.013Z,99217.13
2022-12-29T01:36:57.498Z,99225.25
2022-12-29T01:39:26.762Z,99226.87
2022-12-29T01:41:55.235Z,99218.88
2022-12-29T01:44:45.422Z,99216.49
2022-12-29T01:47:36.278Z,99204.69
2022-12-29T01:50:20.370Z,99201.55
2022-12-29T01:53:03.939Z,99197.72
2022-12-29T01:55:35.913Z,99192.83
2022-12-29T01:58:07.601Z,99188.20
2022-12-29T02:00:36.726Z,99183.11
2022-12-29T02:03:07.473Z,99172.94
2022-12-29T02:05:44.952Z,99168.90
2022-12-29T02:08:14.922Z,99171.02
2022-12-29T02:10:45.637Z,99171.38
2022-12-29T02:13:18.455Z,99171.89
2022-12-29T02:15:49.760Z,99166.27
2022-12-29T02:18:33.763Z,99157.46
2022-12-29T02:21:24.214Z,99157.23
2022-12-29T02:24:30.528Z,99163.46
2022-12-29T02:27:34.415Z,99164.49
2022-12-29T02:30:13.350Z,99165.84
2022-12-29T02:33:25.460Z,99163.83
2022-12-29T02:36:10.829Z,99162.09
2022-12-29T02:39:06.974Z,99162.35
2022-12-29T02:41:57.983Z,99155.41
2022-12-29T02:44:42.546Z,99161.15
2022-12-29T02:47:16.201Z,99158.36
2022-12-29T02:50:02.824Z,99155.60
2022-12-29T02:52:43.888Z,99153.88
2022-12-29T02:55:13.035Z,99156.20
2022-12-29T02:57:43.182Z,99149.95
2022-12-29T03:00:18.346Z,99143.51
2022-12-29T03:03:14.904Z,99138.33
2022-12-29T03:06:07.796Z,99128.41
2022-12-29T03:08:42.369Z,99117.41
2022-12-29T03:11:32.370Z,99114.19
2022-12-29T03:14:34.839Z,99118.48
2022-12-29T03:17:29.454Z,99116.29
2022-12-29T03:20:09.451Z,99115.73
2022-12-29T03:22:44.956Z,99107.87
2022-12-29T03:25:35.058Z,99100.70
2022-12-29T03:28:11.001Z,99105.08
2022-12-29T03:30:45.109Z,99107.00
2022-12-29T03:33:18.949Z,99102.42
2022-12-29T03:35:50.605Z,99101.21
2022-12-29T03:38:57.999Z,99098.82
2022-12-29T03:41:32.393Z,99098.09
2022-12-29T03:44:01.381Z,99093.93
2022-12-29T03:46:29.694Z,99095.24
2022-12-29T03:48:58.370Z,99091.81
2022-12-29T03:51:26.754Z,99100.66
2022-12-29T03:53:55.968Z,99097.40
2022-12-29T03:56:24.346Z,99087.81
2022-12-29T03:58:52.839Z,99086.10
2022-12-29T04:01:32.153Z,99089.42
2022-12-29T04:04:00.623Z,99092.29
2022-12-29T04:06:29.091Z,99090.34
2022-12-29T04:09:04.183Z,99090.20
2022-12-29T04:11:36.038Z,99087.63
2022-12-29T04:14:05.961Z,99087.94
2022-12-29T04:16:37.022Z,99093.67
2022-12-29T04:19:08.647Z,99092.16
2022-12-29T04:21:38.239Z,99101.20
2022-12-29T04:24:07.791Z,99096.88
2022-12-29T04:26:42.784Z,99098.18
2022-12-29T04:29:31.307Z,99103.83
2022-12-29T04:32:05.947Z,99102.70
2022-12-29T04:34:36.586Z,99103.18
2022-12-29T04:37:04.910Z,99106.82
2022-12-29T04:39:35.671Z,99108.72
2022-12-29T04:42:05.158Z,99109.61
2022-12-29T04:44:35.319Z,99109.05
2022-12-29T04:47:14.468Z,99114.14
2022-12-29T04:50:15.310Z,99113.07
2022-12-29T04:52:55.635Z,99113.61
2022-12-29T04:55:24.164Z,99118.54
2022-12-29T04:57:52.556Z,99116.29
2022-12-29T05:00:22.038Z,99100.33
2022-12-29T05:02:50.622Z,99081.94
2022-12-29T05:05:20.026Z,99069.36
2022-12-29T05:07:51.645Z,99067.27
2022-12-29T05:10:20.022Z,99067.61
2022-12-29T05:12:50.353Z,99066.21
2022-12-29T05:15:19.713Z,99058.80
2022-12-29T05:17:48.143Z,99060.17
2022-12-29T05:20:16.939Z,99060.91
2022-12-29T05:22:46.169Z,99066.02
2022-12-29T05:25:14.599Z,99070.23
2022-12-29T05:28:09.995Z,99072.36
2022-12-29T05:30:45.676Z,99072.32
2022-12-29T05:33:14.216Z,99080.00
2022-12-29T05:35:42.871Z,99081.66
2022-12-29T05:38:11.642Z,99077.54
2022-12-29T05:40:40.268Z,99074.52
2022-12-29T05:43:23.299Z,99074.16
2022-12-29T05:46:10.252Z,99068.90
2022-12-29T05:49:05.668Z,99066.30
2022-12-29T05:51:49.450Z,99065.09
2022-12-29T05:54:18.406Z,99058.83
2022-12-29T05:56:47.380Z,99056.92
2022-12-29T05:59:15.906Z,99055.69
2022-12-29T06:01:44.576Z,99055.27
2022-12-29T06:04:14.227Z,99054.05
2022-12-29T06:06:43.750Z,99047.52
2022-12-29T06:09:20.121Z,99050.67
2022-12-29T06:11:48.730Z,99048.56
2022-12-29T06:14:17.142Z,99048.02
2022-12-29T06:16:46.645Z,99049.62
2022-12-29T06:19:15.563Z,99051.92
2022-12-29T06:21:43.881Z,99057.62
2022-12-29T06:24:12.607Z,99058.73
2022-12-29T06:26:41.356Z,99059.67
2022-12-29T06:29:09.844Z,99057.66
2022-12-29T06:31:38.551Z,99055.27
2022-12-29T06:34:08.703Z,99049.74
2022-12-29T06:36:38.825Z,99049.99
2022-12-29T06:39:07.517Z,99049.04
2022-12-29T06:41:36.507Z,99053.32
2022-12-29T06:44:24.433Z,99057.26
2022-12-29T06:46:59.371Z,99060.80
2022-12-29T06:49:30.096Z,99058.67
2022-12-29T06:52:03.360Z,99057.42
2022-12-29T06:54:33.635Z,99058.09
2022-12-29T06:57:04.033Z,99049.50
2022-12-29T06:59:32.800Z,99050.68
2022-12-29T07:02:03.535Z,99055.11
2022-12-29T07:04:33.441Z,99059.34
2022-12-29T07:07:02.010Z,99053.91
2022-12-29T07:09:30.417Z,99048.60
2022-12-29T07:11:58.827Z,99043.27
2022-12-29T07:14:27.585Z,99041.48
2022-12-29T07:16:56.184Z,99043.54
2022-12-29T07:19:27.323Z,99040.28
2022-12-29T07:21:56.590Z,99031.86
2022-12-29T07:24:26.922Z,99030.27
2022-12-29T07:26:55.478Z,99019.39
2022-12-29T07:29:24.241Z,99015.88
2022-12-29T07:31:52.811Z,99006.89
2022-12-29T07:34:21.570Z,99004.27
2022-12-29T07:36:51.542Z,98999.59
2022-12-29T07:39:20.056Z,99003.51
2022-12-29T07:41:48.576Z,99005.41
2022-12-29T07:44:20.851Z,99005.15
2022-12-29T07:47:00.068Z,99004.08
2022-12-29T07:49:29.207Z,99004.61
2022-12-29T07:51:57.811Z,99011.17
2022-12-29T07:54:26.317Z,99017.15
2022-12-29T07:56:55.396Z,99015.75
2022-12-29T07:59:24.032Z,99015.36
2022-12-29T08:01:54.739Z,99018.14
2022-12-29T08:04:23.191Z,99018.55
2022-12-29T08:06:53.011Z,99016.86
2022-12-29T08:09:25.451Z,99009.70
2022-12-29T08:11:55.519Z,99006.58
2022-12-29T08:14:24.026Z,99008.55
2022-12-29T08:16:52.482Z,99004.04
2022-12-29T08:19:29.732Z,99003.16
2022-12-29T08:21:58.182Z,99002.73
2022-12-29T08:24:26.743Z,99000.67
2022-12-29T08:26:56.333Z,99000.61
2022-12-29T08:29:30.685Z,99002.98
2022-12-29T08:31:59.218Z,99004.41
2022-12-29T08:34:27.588Z,99011.63
2022-12-29T08:36:55.974Z,99014.15
2022-12-29T08:39:24.461Z,99021.09
2022-12-29T08:41:53.029Z,99021.51
2022-12-29T08:44:22.547Z,99023.21
2022-12-29T08:46:51.252Z,99019.66
2022-12-29T08:49:19.693Z,99012.58
2022-12-29T08:51:48.264Z,99007.60
2022-12-29T08:54:19.526Z,99009.54
2022-12-29T08:56:48.086Z,99008.58
2022-12-29T08:59:18.465Z,99008.48
2022-12-29T09:01:49.153Z,99011.25
2022-12-29T09:04:18.504Z,99008.09
2022-12-29T09:06:47.371Z,99009.98
2022-12-29T09:09:16.269Z,99008.84
2022-12-29T09:11:45.958Z,99007.38
2022-12-29T09:14:15.676Z,99004.32
2022-12-29T09:17:02.680Z,99001.04
2022-12-29T09:19:32.564Z,98996.02
2022-12-29T09:22:01.073Z,98996.20
2022-12-29T09:24:29.758Z,98995.92
2022-12-29T09:26:58.582Z,98994.96
2022-12-29T09:29:27.294Z,98992.23
2022-12-29T09:31:56.816Z,98988.77
2022-12-29T09:34:25.251Z,98985.45
2022-12-29T09:36:57.521Z,98987.19
2022-12-29T09:39:27.079Z,98985.14
2022-12-29T09:42:21.270Z,98979.38
2022-12-29T09:44:56.758Z,98976.41
2022-12-29T09:47:27.145Z,98974.91
2022-12-29T09:50:14.870Z,98981.84
2022-12-29T09:52:59.626Z,98973.09
2022-12-29T09:55:42.486Z,98979.46
2022-12-29T09:58:17.169Z,98974.80
2022-12-29T10:01:05.406Z,98978.79
2022-12-29T10:03:52.229Z,98981.98
2022-12-29T10:06:32.900Z,98986.57
2022-12-29T10:09:30.359Z,98987.42
2022-12-29T10:12:22.662Z,98983.06
2022-12-29T10:15:32.803Z,98983.16
2022-12-29T10:18:20.289Z,98983.92
2022-12-29T10:21:01.524Z,98979.83
2022-12-29T10:23:42.189Z,98977.86
2022-12-29T10:26:17.165Z,98975.96
2022-12-29T10:28:56.817Z,98974.69
2022-12-29T10:31:37.069Z,98975.91
2022-12-29T10:34:21.171Z,98974.09
2022-12-29T10:37:01.623Z,98964.92
2022-12-29T10:40:04.423Z,98958.65
2022-12-29T10:42:48.808Z,98960.80
2022-12-29T10:45:24.799Z,98960.24
2022-12-29T10:48:13.679Z,98969.02
2022-12-29T10:51:02.113Z,98965.14
2022-12-29T10:53:46.643Z,98949.43
2022-12-29T10:56:49.004Z,98944.63
2022-12-29T10:59:28.282Z,98932.27
2022-12-29T11:02:11.945Z,98927.45
2022-12-29T11:05:18.174Z,98924.35
2022-12-29T11:07:56.836Z,98912.27
2022-12-29T11:14:09.580Z,98902.02
2022-12-29T11:17:06.654Z,98898.02
2022-12-29T11:20:01.826Z,98891.96
2022-12-29T11:22:36.931Z,98881.05
2022-12-29T11:25:19.852Z,98882.05
2022-12-29T11:28:21.547Z,98885.06
2022-12-29T11:31:07.528Z,98884.48
2022-12-29T11:36:52.293Z,98883.76
2022-12-29T11:39:53.328Z,98886.39
2022-12-29T11:42:41.458Z,98883.71
2022-12-29T11:45:37.579Z,98878.99
2022-12-29T11:48:25.245Z,98881.88
2022-12-29T11:51:08.266Z,98882.41
2022-12-29T11:53:52.321Z,98880.27
2022-12-29T11:56:42.143Z,98879.84
2022-12-29T11:59:39.737Z,98878.95
2022-12-29T12:02:37.214Z,98880.83
2022-12-29T12:05:38.956Z,98881.41
2022-12-29T12:08:59.478Z,98880.64
2022-12-29T12:12:00.160Z,98883.06
2022-12-29T12:18:45.178Z,98885.91
2022-12-29T12:21:49.410Z,98881.20
2022-12-29T12:25:41.130Z,98882.02
2022-12-29T12:28:45.905Z,98880.80
2022-12-29T12:31:47.190Z,98885.16
2022-12-29T12:34:58.770Z,98886.12
2022-12-29T12:37:54.732Z,98885.35
2022-12-29T12:40:53.979Z,98881.60
2022-12-29T12:43:42.260Z,98880.75
2022-12-29T12:47:14.220Z,98879.10
2022-12-29T12:50:31.348Z,98877.27
2022-12-29T12:53:42.145Z,98880.59
2022-12-29T12:56:45.833Z,98882.11
2022-12-29T12:59:46.763Z,98879.55
2022-12-29T13:02:34.590Z,98876.98
2022-12-29T13:05:27.327Z,98873.20
2022-12-29T13:08:39.600Z,98873.69
2022-12-29T13:14:14.242Z,98880.39
2022-12-29T13:17:13.391Z,98883.38
2022-12-29T13:20:19.369Z,98888.88
2022-12-29T13:23:17.224Z,98892.09
2022-12-29T13:27:56.937Z,98888.55
2022-12-29T13:36:03.409Z,98899.05
2022-12-29T13:42:55.488Z,98899.58
2022-12-29T13:45:49.030Z,98898.58
2022-12-29T13:52:47.284Z,98902.79
2022-12-29T13:56:01.234Z,98903.56
2022-12-29T13:58:55.242Z,98915.09
2022-12-29T14:02:46.983Z,98920.70
2022-12-29T14:06:17.838Z,98924.52
2022-12-29T14:10:50.940Z,98930.71
2022-12-29T14:13:54.840Z,98933.37
2022-12-29T14:16:56.133Z,98930.45
2022-12-29T14:23:49.466Z,98925.98
2022-12-29T14:26:48.469Z,98921.02
2022-12-29T14:29:35.239Z,98918.70
2022-12-29T14:32:37.921Z,98916.98
2022-12-29T14:35:49.352Z,98915.41
2022-12-29T14:38:32.522Z,98915.31
2022-12-29T14:42:06.243Z,98919.70
2022-12-29T14:45:06.988Z,98922.67
2022-12-29T14:47:58.700Z,98924.77
2022-12-29T14:50:58.117Z,98929.75
2022-12-29T14:54:27.959Z,98929.13
2022-12-29T14:57:13.890Z,98929.55
2022-12-29T15:00:09.253Z,98928.45
2022-12-29T15:02:48.005Z,98928.59
2022-12-29T15:05:53.239Z,98928.73
2022-12-29T15:08:38.516Z,98932.41
2022-12-29T15:11:41.505Z,98937.19
2022-12-29T15:14:37.416Z,98941.21
2022-12-29T15:17:34.083Z,98939.77
2022-12-29T15:20:36.013Z,98936.23
2022-12-29T15:23:13.111Z,98941.09
2022-12-29T15:25:58.113Z,98939.54
2022-12-29T15:28:29.414Z,98939.79
2022-12-29T15:31:13.929Z,98940.60
2022-12-29T15:33:48.635Z,98938.12
2022-12-29T15:36:24.910Z,98939.06
2022-12-29T15:38:54.720Z,98943.30
2022-12-29T15:41:28.216Z,98942.27
2022-12-29T15:44:18.430Z,98946.52
2022-12-29T15:46:48.621Z,98950.88
2022-12-29T15:49:17.617Z,98957.54
2022-12-29T15:51:46.801Z,98958.48
2022-12-29T15:54:22.148Z,98958.59
2022-12-29T15:56:52.418Z,98956.52
2022-12-29T15:59:31.449Z,98951.44
2022-12-29T16:02:07.162Z,98947.69
2022-12-29T16:05:15.563Z,98948.55
2022-12-29T16:07:41.321Z,98947.30
2022-12-29T16:10:43.961Z,98944.27
2022-12-29T16:13:34.197Z,98946.59
2022-12-29T16:16:22.165Z,98948.44
2022-12-29T16:18:57.325Z,98950.29
2022-12-29T16:21:36.273Z,98948.04
2022-12-29T16:24:15.134Z,98948.11
2022-12-29T16:26:54.128Z,98950.08
2022-12-29T16:29:23.202Z,98952.02
2022-12-29T16:32:01.916Z,98950.29
2022-12-29T16:34:53.379Z,98950.17
2022-12-29T16:37:32.138Z,98948.67
2022-12-29T16:40:18.763Z,98949.62
2022-12-29T16:42:52.337Z,98944.89
2022-12-29T16:45:46.671Z,98942.30
2022-12-29T16:48:14.977Z,98935.63
2022-12-29T16:50:45.169Z,98941.29
2022-12-29T16:53:19.574Z,98946.57
2022-12-29T16:55:52.841Z,98948.91
2022-12-29T16:58:27.079Z,98946.26
2022-12-29T17:00:59.747Z,98946.98
2022-12-29T17:03:48.737Z,98941.92
2022-12-29T17:06:27.226Z,98943.64
2022-12-29T17:08:56.225Z,98942.99
2022-12-29T17:11:58.369Z,98950.35
2022-12-29T17:14:56.139Z,98953.98
2022-12-29T17:17:37.814Z,98950.71
2022-12-29T17:20:24.879Z,98947.00
2022-12-29T17:22:54.348Z,98950.77
2022-12-29T17:25:42.426Z,98948.32
2022-12-29T17:28:30.334Z,98950.30
2022-12-29T17:31:05.859Z,98950.59
2022-12-29T17:33:44.296Z,98946.16
2022-12-29T17:36:12.919Z,98944.58
2022-12-29T17:38:43.546Z,98951.33
2022-12-29T17:41:17.355Z,98957.06
2022-12-29T17:43:46.092Z,98960.21
2022-12-29T17:46:14.497Z,98960.23
2022-12-29T17:48:46.721Z,98960.52
2022-12-29T17:51:22.511Z,98961.58
2022-12-29T17:53:53.690Z,98961.80
2022-12-29T17:56:22.318Z,98960.06
2022-12-29T17:58:51.436Z,98954.90
2022-12-29T18:01:22.790Z,98959.79
2022-12-29T18:03:54.857Z,98962.56
2022-12-29T18:06:24.504Z,98958.23
2022-12-29T18:08:52.956Z,98961.62
2022-12-29T18:11:33.058Z,98965.17
2022-12-29T18:14:15.082Z,98961.26
2022-12-29T18:16:44.459Z,98958.71
2022-12-29T18:19:13.163Z,98954.31
2022-12-29T18:21:48.300Z,98955.92
2022-12-29T18:24:16.776Z,98954.17
2022-12-29T18:26:45.281Z,98954.08
2022-12-29T18:29:21.372Z,98957.66
2022-12-29T18:31:58.217Z,98956.25
2022-12-29T18:34:29.861Z,98955.84
2022-12-29T18:37:00.041Z,98954.88
2022-12-29T18:39:31.838Z,98962.22
2022-12-29T18:42:00.433Z,98965.18
2022-12-29T18:44:31.553Z,98959.19
2022-12-29T18:47:01.783Z,98955.61
2022-12-29T18:49:30.362Z,98954.80
2022-12-29T18:51:58.959Z,98954.38
2022-12-29T18:54:34.113Z,98952.71
2022-12-29T18:57:05.949Z,98946.40
2022-12-29T18:59:35.348Z,98945.63
2022-12-29T19:02:06.301Z,98947.96
2022-12-29T19:04:34.747Z,98946.87
2022-12-29T19:07:04.293Z,98946.20
2022-12-29T19:09:38.744Z,98945.98
2022-12-29T19:12:08.545Z,98940.89
2022-12-29T19:14:39.463Z,98938.15
2022-12-29T19:20:32.224Z,98944.89
2022-12-29T19:23:04.333Z,98948.29
2022-12-29T19:25:34.251Z,98951.08
2022-12-29T19:28:10.560Z,98948.86
2022-12-29T19:30:42.512Z,98947.26
2022-12-29T19:33:11.076Z,98945.48
2022-12-29T19:35:41.732Z,98942.98
2022-12-29T19:38:15.024Z,98946.52
2022-12-29T19:40:50.607Z,98943.65
2022-12-29T19:43:20.289Z,98943.29
2022-12-29T19:46:01.805Z,98942.67
2022-12-29T19:48:33.601Z,98942.26
2022-12-29T19:51:17.505Z,98944.94
2022-12-29T19:53:47.728Z,98939.15
2022-12-29T19:56:22.224Z,98934.13
2022-12-29T19:58:52.017Z,98934.29
2022-12-29T20:01:23.185Z,98928.91
2022-12-29T20:03:52.778Z,98926.72
2022-12-29T20:06:24.890Z,98928.15
2022-12-29T20:08:55.927Z,98922.85
2022-12-29T20:11:30.174Z,98923.92
2022-12-29T20:14:00.145Z,98923.75
2022-12-29T20:17:11.351Z,98921.24
2022-12-29T20:19:47.218Z,98919.59
2022-12-29T20:22:40.074Z,98916.73
2022-12-29T20:25:43.608Z,98913.08
2022-12-29T20:27:58.500Z,98911.01
2022-12-29T20:30:27.884Z,98909.98
2022-12-29T20:32:56.255Z,98915.17
2022-12-29T20:35:28.417Z,98918.95
2022-12-29T20:37:57.863Z,98918.02
2022-12-29T20:40:28.802Z,98918.88
2022-12-29T20:42:57.512Z,98917.64
2022-12-29T20:45:26.672Z,98919.80
2022-12-29T20:47:57.534Z,98916.92
2022-12-29T20:50:26.887Z,98915.21
2022-12-29T20:52:59.630Z,98915.34
2022-12-29T20:55:28.964Z,98919.89
2022-12-29T20:58:23.282Z,98924.23
2022-12-29T21:00:47.417Z,98932.38
2022-12-29T21:03:15.958Z,98937.94
2022-12-29T21:05:44.470Z,98943.70
2022-12-29T21:08:12.915Z,98945.52
2022-12-29T21:10:51.529Z,98946.49
2022-12-29T21:13:22.993Z,98948.52
2022-12-29T21:16:00.629Z,98947.54
2022-12-29T21:18:30.223Z,98949.35
2022-12-29T21:21:09.901Z,98952.39
2022-12-29T21:23:40.268Z,98949.42
2022-12-29T21:26:10.422Z,98948.65
2022-12-29T21:28:40.218Z,98946.90
2022-12-29T21:31:33.519Z,98948.55
2022-12-29T21:34:05.449Z,98942.18
2022-12-29T21:36:35.969Z,98938.58
2022-12-29T21:39:04.747Z,98934.86
2022-12-29T21:41:35.373Z,98941.11
2022-12-29T21:44:23.400Z,98940.02
2022-12-29T21:46:51.838Z,98939.06
2022-12-29T21:49:22.244Z,98936.25
2022-12-29T21:51:53.859Z,98935.77
2022-12-29T21:54:49.746Z,98930.79
2022-12-29T21:57:38.813Z,98931.85
2022-12-29T22:00:28.668Z,98932.78
2022-12-29T22:03:22.748Z,98933.56
2022-12-29T22:06:11.692Z,98940.73
2022-12-29T22:08:59.386Z,98952.72
2022-12-29T22:11:46.618Z,98956.94
2022-12-29T22:14:14.944Z,98959.02
2022-12-29T22:16:43.504Z,98955.95
2022-12-29T22:19:11.875Z,98961.01
2022-12-29T22:21:41.403Z,98959.48
2022-12-29T22:24:10.011Z,98963.86
2022-12-29T22:26:39.014Z,98967.62
2022-12-29T22:29:08.076Z,98965.84
2022-12-29T22:31:39.143Z,98961.05
2022-12-29T22:34:07.605Z,98958.60
2022-12-29T22:36:36.110Z,98958.80
2022-12-29T22:39:04.494Z,98958.36
2022-12-29T22:41:33.834Z,98957.45
2022-12-29T22:44:07.281Z,98956.33
2022-12-29T22:46:35.789Z,98955.93
2022-12-29T22:49:04.157Z,98955.48
2022-12-29T22:51:32.580Z,98958.59
2022-12-29T22:54:01.638Z,98952.02
2022-12-29T22:56:30.219Z,98953.65
2022-12-29T22:58:58.876Z,98955.13
2022-12-29T23:01:27.409Z,98962.48
2022-12-29T23:04:05.977Z,98960.42
2022-12-29T23:06:41.120Z,98955.40
2022-12-29T23:09:16.731Z,98954.93
2022-12-29T23:11:47.471Z,98952.61
2022-12-29T23:14:19.291Z,98948.55
2022-12-29T23:16:47.903Z,98952.02
2022-12-29T23:19:21.104Z,98947.54
2022-12-29T23:21:50.849Z,98947.38
2022-12-29T23:24:19.731Z,98951.85
2022-12-29T23:26:48.841Z,98952.09
2022-12-29T23:29:27.625Z,98952.12
2022-12-29T23:31:58.549Z,98953.31
2022-12-29T23:34:27.037Z,98952.41
2022-12-29T23:36:55.294Z,98951.46
2022-12-29T23:39:24.987Z,98956.74
2022-12-29T23:41:53.499Z,98961.39
2022-12-29T23:44:24.262Z,98960.27
2022-12-29T23:46:52.875Z,98958.95
2022-12-29T23:49:21.459Z,98958.35
2022-12-29T23:51:49.754Z,98958.88
2022-12-29T23:54:18.115Z,98957.98
2022-12-29T23:56:47.671Z,98960.98
2022-12-29T23:59:16.245Z,98957.63
